sensor_id;sensor_type;location;lat;lon;timestamp;P1;durP1;ratioP1;P2;durP2;ratioP2
12412;SDS011;13877;18.896;-99.222;2023-09-19T00:00:47;17.27;;;11.95;;
12412;SDS011;13877;18.896;-99.222;2023-09-19T00:03:14;23.33;;;12.48;;
12412;SDS011;13877;18.896;-99.222;2023-09-19T00:05:42;17.70;;;11.93;;
12412;SDS011;13877;18.896;-99.222;2023-09-19T00:08:10;22.00;;;11.25;;
12412;SDS011;13877;18.896;-99.222;2023-09-19T00:10:39;20.73;;;12.23;;
12412;SDS011;13877;18.896;-99.222;2023-09-19T00:13:08;22.05;;;11.27;;
12412;SDS011;13877;18.896;-99.222;2023-09-19T00:15:40;20.02;;;12.65;;
12412;SDS011;13877;18.896;-99.222;2023-09-19T00:18:14;21.02;;;12.05;;
12412;SDS011;13877;18.896;-99.222;2023-09-19T00:20:43;19.27;;;12.00;;
12412;SDS011;13877;18.896;-99.222;2023-09-19T00:23:17;26.35;;;12.80;;
12412;SDS011;13877;18.896;-99.222;2023-09-19T00:25:44;22.65;;;12.93;;
12412;SDS011;13877;18.896;-99.222;2023-09-19T00:28:12;22.90;;;13.50;;
12412;SDS011;13877;18.896;-99.222;2023-09-19T00:30:42;23.17;;;13.43;;
12412;SDS011;13877;18.896;-99.222;2023-09-19T00:33:10;23.60;;;12.70;;
12412;SDS011;13877;18.896;-99.222;2023-09-19T00:35:52;24.50;;;13.05;;
12412;SDS011;13877;18.896;-99.222;2023-09-19T00:38:21;23.90;;;13.55;;
12412;SDS011;13877;18.896;-99.222;2023-09-19T00:40:53;23.50;;;12.57;;
12412;SDS011;13877;18.896;-99.222;2023-09-19T00:43:23;22.02;;;13.38;;
12412;SDS011;13877;18.896;-99.222;2023-09-19T00:45:53;18.98;;;10.65;;
12412;SDS011;13877;18.896;-99.222;2023-09-19T00:48:21;14.15;;;8.93;;
12412;SDS011;13877;18.896;-99.222;2023-09-19T00:50:50;15.45;;;9.00;;
12412;SDS011;13877;18.896;-99.222;2023-09-19T00:53:21;14.55;;;8.40;;
12412;SDS011;13877;18.896;-99.222;2023-09-19T00:55:49;12.63;;;7.93;;
12412;SDS011;13877;18.896;-99.222;2023-09-19T00:58:18;19.13;;;9.30;;
12412;SDS011;13877;18.896;-99.222;2023-09-19T01:00:49;13.65;;;8.30;;
12412;SDS011;13877;18.896;-99.222;2023-09-19T01:03:17;24.98;;;7.82;;
12412;SDS011;13877;18.896;-99.222;2023-09-19T01:05:45;13.85;;;7.93;;
12412;SDS011;13877;18.896;-99.222;2023-09-19T01:08:13;20.92;;;9.73;;
12412;SDS011;13877;18.896;-99.222;2023-09-19T01:10:44;20.10;;;9.73;;
12412;SDS011;13877;18.896;-99.222;2023-09-19T01:13:31;21.70;;;9.57;;
12412;SDS011;13877;18.896;-99.222;2023-09-19T01:16:19;15.98;;;8.15;;
12412;SDS011;13877;18.896;-99.222;2023-09-19T01:24:49;16.05;;;5.78;;
12412;SDS011;13877;18.896;-99.222;2023-09-19T01:30:33;10.90;;;4.97;;
12412;SDS011;13877;18.896;-99.222;2023-09-19T01:33:05;8.27;;;5.00;;
12412;SDS011;13877;18.896;-99.222;2023-09-19T01:35:33;8.52;;;5.03;;
12412;SDS011;13877;18.896;-99.222;2023-09-19T01:38:05;11.15;;;5.35;;
12412;SDS011;13877;18.896;-99.222;2023-09-19T01:40:41;7.15;;;4.47;;
12412;SDS011;13877;18.896;-99.222;2023-09-19T01:43:19;12.20;;;5.40;;
12412;SDS011;13877;18.896;-99.222;2023-09-19T01:49:27;8.73;;;4.72;;
12412;SDS011;13877;18.896;-99.222;2023-09-19T01:54:51;10.70;;;5.82;;
12412;SDS011;13877;18.896;-99.222;2023-09-19T01:57:28;14.18;;;5.35;;
12412;SDS011;13877;18.896;-99.222;2023-09-19T02:00:05;10.05;;;4.97;;
12412;SDS011;13877;18.896;-99.222;2023-09-19T02:02:42;10.77;;;4.68;;
12412;SDS011;13877;18.896;-99.222;2023-09-19T02:05:13;7.75;;;4.68;;
12412;SDS011;13877;18.896;-99.222;2023-09-19T02:07:49;10.32;;;4.80;;
12412;SDS011;13877;18.896;-99.222;2023-09-19T02:10:16;9.68;;;4.68;;
12412;SDS011;13877;18.896;-99.222;2023-09-19T02:12:44;9.85;;;5.22;;
12412;SDS011;13877;18.896;-99.222;2023-09-19T02:15:13;11.35;;;5.55;;
12412;SDS011;13877;18.896;-99.222;2023-09-19T02:17:42;10.88;;;6.63;;
12412;SDS011;13877;18.896;-99.222;2023-09-19T02:20:10;18.23;;;6.60;;
12412;SDS011;13877;18.896;-99.222;2023-09-19T02:22:39;14.27;;;6.10;;
12412;SDS011;13877;18.896;-99.222;2023-09-19T02:25:07;15.85;;;7.22;;
12412;SDS011;13877;18.896;-99.222;2023-09-19T02:27:35;16.10;;;8.18;;
12412;SDS011;13877;18.896;-99.222;2023-09-19T02:30:03;27.13;;;10.65;;
12412;SDS011;13877;18.896;-99.222;2023-09-19T02:32:32;29.30;;;10.85;;
12412;SDS011;13877;18.896;-99.222;2023-09-19T02:35:02;28.02;;;11.40;;
12412;SDS011;13877;18.896;-99.222;2023-09-19T02:37:31;24.92;;;11.00;;
12412;SDS011;13877;18.896;-99.222;2023-09-19T02:39:59;22.08;;;11.68;;
12412;SDS011;13877;18.896;-99.222;2023-09-19T02:42:26;28.65;;;12.20;;
12412;SDS011;13877;18.896;-99.222;2023-09-19T02:44:53;33.85;;;14.45;;
12412;SDS011;13877;18.896;-99.222;2023-09-19T02:47:22;44.15;;;16.33;;
12412;SDS011;13877;18.896;-99.222;2023-09-19T02:49:50;35.40;;;14.68;;
12412;SDS011;13877;18.896;-99.222;2023-09-19T02:52:17;33.83;;;15.13;;
12412;SDS011;13877;18.896;-99.222;2023-09-19T02:54:44;36.75;;;14.63;;
12412;SDS011;13877;18.896;-99.222;2023-09-19T02:57:11;26.50;;;11.80;;
12412;SDS011;13877;18.896;-99.222;2023-09-19T02:59:41;25.17;;;11.98;;
12412;SDS011;13877;18.896;-99.222;2023-09-19T03:02:08;28.17;;;14.13;;
12412;SDS011;13877;18.896;-99.222;2023-09-19T03:04:36;29.15;;;14.32;;
12412;SDS011;13877;18.896;-99.222;2023-09-19T03:07:03;37.60;;;16.85;;
12412;SDS011;13877;18.896;-99.222;2023-09-19T03:09:32;41.72;;;17.17;;
12412;SDS011;13877;18.896;-99.222;2023-09-19T03:11:59;37.90;;;17.13;;
12412;SDS011;13877;18.896;-99.222;2023-09-19T03:14:27;36.30;;;17.95;;
12412;SDS011;13877;18.896;-99.222;2023-09-19T03:16:58;32.08;;;18.67;;
12412;SDS011;13877;18.896;-99.222;2023-09-19T03:19:25;29.20;;;17.02;;
12412;SDS011;13877;18.896;-99.222;2023-09-19T03:24:24;38.40;;;17.77;;
12412;SDS011;13877;18.896;-99.222;2023-09-19T03:26:52;33.22;;;18.08;;
12412;SDS011;13877;18.896;-99.222;2023-09-19T03:29:19;44.85;;;19.98;;
12412;SDS011;13877;18.896;-99.222;2023-09-19T03:31:47;38.42;;;21.33;;
12412;SDS011;13877;18.896;-99.222;2023-09-19T03:34:14;32.75;;;19.55;;
12412;SDS011;13877;18.896;-99.222;2023-09-19T03:36:42;34.00;;;19.73;;
12412;SDS011;13877;18.896;-99.222;2023-09-19T03:39:09;36.22;;;19.85;;
12412;SDS011;13877;18.896;-99.222;2023-09-19T03:41:36;33.72;;;20.17;;
12412;SDS011;13877;18.896;-99.222;2023-09-19T03:44:04;35.78;;;18.90;;
12412;SDS011;13877;18.896;-99.222;2023-09-19T03:46:32;35.92;;;20.45;;
12412;SDS011;13877;18.896;-99.222;2023-09-19T03:49:01;34.88;;;18.95;;
12412;SDS011;13877;18.896;-99.222;2023-09-19T03:51:28;36.05;;;19.65;;
12412;SDS011;13877;18.896;-99.222;2023-09-19T03:53:55;35.65;;;19.27;;
12412;SDS011;13877;18.896;-99.222;2023-09-19T03:56:23;33.55;;;18.60;;
12412;SDS011;13877;18.896;-99.222;2023-09-19T03:58:50;39.20;;;20.67;;
12412;SDS011;13877;18.896;-99.222;2023-09-19T04:01:17;36.85;;;19.90;;
12412;SDS011;13877;18.896;-99.222;2023-09-19T04:03:44;36.33;;;20.65;;
12412;SDS011;13877;18.896;-99.222;2023-09-19T04:06:13;38.47;;;21.00;;
12412;SDS011;13877;18.896;-99.222;2023-09-19T04:08:41;33.03;;;20.25;;
12412;SDS011;13877;18.896;-99.222;2023-09-19T04:11:11;32.95;;;19.45;;
12412;SDS011;13877;18.896;-99.222;2023-09-19T04:13:38;37.95;;;19.63;;
12412;SDS011;13877;18.896;-99.222;2023-09-19T04:16:06;42.35;;;22.25;;
12412;SDS011;13877;18.896;-99.222;2023-09-19T04:18:33;36.33;;;18.08;;
12412;SDS011;13877;18.896;-99.222;2023-09-19T04:21:03;33.93;;;15.27;;
12412;SDS011;13877;18.896;-99.222;2023-09-19T04:23:32;27.05;;;13.05;;
12412;SDS011;13877;18.896;-99.222;2023-09-19T04:25:59;34.90;;;15.57;;
12412;SDS011;13877;18.896;-99.222;2023-09-19T04:28:26;26.15;;;13.52;;
12412;SDS011;13877;18.896;-99.222;2023-09-19T04:30:53;35.35;;;14.75;;
12412;SDS011;13877;18.896;-99.222;2023-09-19T04:33:21;49.08;;;19.17;;
12412;SDS011;13877;18.896;-99.222;2023-09-19T04:35:51;48.85;;;18.85;;
12412;SDS011;13877;18.896;-99.222;2023-09-19T04:38:18;48.17;;;19.02;;
12412;SDS011;13877;18.896;-99.222;2023-09-19T04:40:46;49.95;;;21.08;;
12412;SDS011;13877;18.896;-99.222;2023-09-19T04:43:14;41.92;;;20.27;;
12412;SDS011;13877;18.896;-99.222;2023-09-19T04:45:41;45.50;;;19.60;;
12412;SDS011;13877;18.896;-99.222;2023-09-19T04:48:08;40.67;;;19.02;;
12412;SDS011;13877;18.896;-99.222;2023-09-19T04:50:37;51.40;;;19.15;;
12412;SDS011;13877;18.896;-99.222;2023-09-19T04:53:04;49.42;;;18.17;;
12412;SDS011;13877;18.896;-99.222;2023-09-19T04:55:33;29.15;;;14.00;;
12412;SDS011;13877;18.896;-99.222;2023-09-19T04:58:00;28.27;;;12.13;;
12412;SDS011;13877;18.896;-99.222;2023-09-19T05:00:28;19.75;;;12.38;;
12412;SDS011;13877;18.896;-99.222;2023-09-19T05:02:56;21.17;;;11.40;;
12412;SDS011;13877;18.896;-99.222;2023-09-19T05:05:24;19.70;;;10.15;;
12412;SDS011;13877;18.896;-99.222;2023-09-19T05:07:55;23.80;;;12.68;;
12412;SDS011;13877;18.896;-99.222;2023-09-19T05:10:22;24.17;;;13.02;;
12412;SDS011;13877;18.896;-99.222;2023-09-19T05:12:52;21.98;;;12.50;;
12412;SDS011;13877;18.896;-99.222;2023-09-19T05:15:20;20.40;;;10.48;;
12412;SDS011;13877;18.896;-99.222;2023-09-19T05:17:48;22.27;;;11.77;;
12412;SDS011;13877;18.896;-99.222;2023-09-19T05:20:21;18.52;;;10.55;;
12412;SDS011;13877;18.896;-99.222;2023-09-19T05:22:58;24.58;;;11.02;;
12412;SDS011;13877;18.896;-99.222;2023-09-19T05:25:31;22.42;;;9.52;;
12412;SDS011;13877;18.896;-99.222;2023-09-19T05:27:58;19.25;;;10.07;;
12412;SDS011;13877;18.896;-99.222;2023-09-19T05:30:29;18.55;;;9.32;;
12412;SDS011;13877;18.896;-99.222;2023-09-19T05:32:56;19.13;;;10.70;;
12412;SDS011;13877;18.896;-99.222;2023-09-19T05:35:24;26.80;;;13.48;;
12412;SDS011;13877;18.896;-99.222;2023-09-19T05:37:52;27.10;;;15.07;;
12412;SDS011;13877;18.896;-99.222;2023-09-19T05:40:21;22.42;;;12.55;;
12412;SDS011;13877;18.896;-99.222;2023-09-19T05:42:49;24.20;;;12.85;;
12412;SDS011;13877;18.896;-99.222;2023-09-19T05:45:16;26.05;;;14.80;;
12412;SDS011;13877;18.896;-99.222;2023-09-19T05:48:10;22.83;;;12.35;;
12412;SDS011;13877;18.896;-99.222;2023-09-19T05:50:39;19.45;;;11.10;;
12412;SDS011;13877;18.896;-99.222;2023-09-19T05:53:06;25.08;;;11.68;;
12412;SDS011;13877;18.896;-99.222;2023-09-19T05:55:34;22.40;;;10.93;;
12412;SDS011;13877;18.896;-99.222;2023-09-19T05:58:01;19.50;;;11.60;;
12412;SDS011;13877;18.896;-99.222;2023-09-19T06:00:29;20.27;;;11.00;;
12412;SDS011;13877;18.896;-99.222;2023-09-19T06:02:58;26.27;;;12.07;;
12412;SDS011;13877;18.896;-99.222;2023-09-19T06:05:26;23.13;;;11.15;;
12412;SDS011;13877;18.896;-99.222;2023-09-19T06:07:53;22.67;;;12.20;;
12412;SDS011;13877;18.896;-99.222;2023-09-19T06:10:21;20.85;;;11.75;;
12412;SDS011;13877;18.896;-99.222;2023-09-19T06:12:49;21.85;;;12.90;;
12412;SDS011;13877;18.896;-99.222;2023-09-19T06:15:16;22.55;;;13.73;;
12412;SDS011;13877;18.896;-99.222;2023-09-19T06:17:51;26.58;;;13.38;;
12412;SDS011;13877;18.896;-99.222;2023-09-19T06:20:23;27.45;;;14.43;;
12412;SDS011;13877;18.896;-99.222;2023-09-19T06:22:51;24.75;;;13.27;;
12412;SDS011;13877;18.896;-99.222;2023-09-19T06:25:19;21.33;;;12.13;;
12412;SDS011;13877;18.896;-99.222;2023-09-19T06:27:47;21.25;;;11.30;;
12412;SDS011;13877;18.896;-99.222;2023-09-19T06:30:14;20.60;;;12.65;;
12412;SDS011;13877;18.896;-99.222;2023-09-19T06:32:43;23.38;;;12.23;;
12412;SDS011;13877;18.896;-99.222;2023-09-19T06:35:11;19.52;;;11.50;;
12412;SDS011;13877;18.896;-99.222;2023-09-19T06:37:40;20.95;;;11.00;;
12412;SDS011;13877;18.896;-99.222;2023-09-19T06:40:08;22.88;;;11.20;;
12412;SDS011;13877;18.896;-99.222;2023-09-19T06:42:43;18.60;;;11.23;;
12412;SDS011;13877;18.896;-99.222;2023-09-19T06:45:14;17.40;;;10.07;;
12412;SDS011;13877;18.896;-99.222;2023-09-19T06:47:45;25.10;;;11.60;;
12412;SDS011;13877;18.896;-99.222;2023-09-19T06:50:15;20.10;;;10.67;;
12412;SDS011;13877;18.896;-99.222;2023-09-19T06:52:45;28.13;;;10.70;;
12412;SDS011;13877;18.896;-99.222;2023-09-19T06:55:18;22.67;;;10.60;;
12412;SDS011;13877;18.896;-99.222;2023-09-19T06:57:46;20.55;;;11.25;;
12412;SDS011;13877;18.896;-99.222;2023-09-19T07:00:14;19.90;;;10.98;;
12412;SDS011;13877;18.896;-99.222;2023-09-19T07:02:42;20.77;;;11.48;;
12412;SDS011;13877;18.896;-99.222;2023-09-19T07:05:09;22.77;;;11.95;;
12412;SDS011;13877;18.896;-99.222;2023-09-19T07:07:36;18.88;;;10.98;;
12412;SDS011;13877;18.896;-99.222;2023-09-19T07:10:04;24.45;;;11.38;;
12412;SDS011;13877;18.896;-99.222;2023-09-19T07:12:31;22.98;;;11.88;;
12412;SDS011;13877;18.896;-99.222;2023-09-19T07:14:58;24.55;;;12.18;;
12412;SDS011;13877;18.896;-99.222;2023-09-19T07:17:25;21.27;;;13.05;;
12412;SDS011;13877;18.896;-99.222;2023-09-19T07:19:54;22.38;;;12.10;;
12412;SDS011;13877;18.896;-99.222;2023-09-19T07:22:21;22.38;;;12.48;;
12412;SDS011;13877;18.896;-99.222;2023-09-19T07:24:49;21.80;;;13.00;;
12412;SDS011;13877;18.896;-99.222;2023-09-19T07:27:16;25.00;;;12.75;;
12412;SDS011;13877;18.896;-99.222;2023-09-19T07:29:44;22.77;;;13.05;;
12412;SDS011;13877;18.896;-99.222;2023-09-19T07:32:11;24.55;;;13.65;;
12412;SDS011;13877;18.896;-99.222;2023-09-19T07:34:39;24.45;;;13.40;;
12412;SDS011;13877;18.896;-99.222;2023-09-19T07:37:07;25.30;;;13.50;;
12412;SDS011;13877;18.896;-99.222;2023-09-19T07:39:35;32.45;;;13.75;;
12412;SDS011;13877;18.896;-99.222;2023-09-19T07:42:02;25.30;;;14.30;;
12412;SDS011;13877;18.896;-99.222;2023-09-19T07:44:30;24.73;;;13.75;;
12412;SDS011;13877;18.896;-99.222;2023-09-19T07:46:57;26.45;;;13.48;;
12412;SDS011;13877;18.896;-99.222;2023-09-19T07:49:24;28.25;;;14.18;;
12412;SDS011;13877;18.896;-99.222;2023-09-19T07:51:51;31.55;;;14.55;;
12412;SDS011;13877;18.896;-99.222;2023-09-19T07:54:20;26.98;;;14.32;;
12412;SDS011;13877;18.896;-99.222;2023-09-19T07:56:47;29.13;;;14.38;;
12412;SDS011;13877;18.896;-99.222;2023-09-19T07:59:15;27.02;;;14.45;;
12412;SDS011;13877;18.896;-99.222;2023-09-19T08:01:42;30.35;;;17.23;;
12412;SDS011;13877;18.896;-99.222;2023-09-19T08:04:10;32.85;;;15.23;;
12412;SDS011;13877;18.896;-99.222;2023-09-19T08:06:37;23.98;;;14.52;;
12412;SDS011;13877;18.896;-99.222;2023-09-19T08:09:05;26.42;;;14.13;;
12412;SDS011;13877;18.896;-99.222;2023-09-19T08:11:35;25.75;;;14.07;;
12412;SDS011;13877;18.896;-99.222;2023-09-19T08:14:02;29.98;;;14.40;;
12412;SDS011;13877;18.896;-99.222;2023-09-19T08:16:31;25.98;;;13.00;;
12412;SDS011;13877;18.896;-99.222;2023-09-19T08:18:59;50.65;;;13.02;;
12412;SDS011;13877;18.896;-99.222;2023-09-19T08:21:26;27.70;;;14.02;;
12412;SDS011;13877;18.896;-99.222;2023-09-19T08:23:55;19.65;;;12.10;;
12412;SDS011;13877;18.896;-99.222;2023-09-19T08:26:23;26.58;;;13.05;;
12412;SDS011;13877;18.896;-99.222;2023-09-19T08:28:50;25.33;;;12.60;;
12412;SDS011;13877;18.896;-99.222;2023-09-19T08:31:17;23.55;;;13.05;;
12412;SDS011;13877;18.896;-99.222;2023-09-19T08:33:44;23.50;;;12.55;;
12412;SDS011;13877;18.896;-99.222;2023-09-19T08:36:15;24.48;;;13.65;;
12412;SDS011;13877;18.896;-99.222;2023-09-19T08:38:43;26.48;;;11.65;;
12412;SDS011;13877;18.896;-99.222;2023-09-19T08:41:10;23.38;;;12.20;;
12412;SDS011;13877;18.896;-99.222;2023-09-19T08:43:38;14.98;;;8.45;;
12412;SDS011;13877;18.896;-99.222;2023-09-19T08:48:54;15.82;;;9.93;;
12412;SDS011;13877;18.896;-99.222;2023-09-19T08:51:41;18.40;;;10.18;;
12412;SDS011;13877;18.896;-99.222;2023-09-19T08:54:19;21.83;;;10.27;;
12412;SDS011;13877;18.896;-99.222;2023-09-19T08:56:53;19.25;;;9.55;;
12412;SDS011;13877;18.896;-99.222;2023-09-19T08:59:23;17.58;;;9.35;;
12412;SDS011;13877;18.896;-99.222;2023-09-19T09:01:53;14.88;;;8.35;;
12412;SDS011;13877;18.896;-99.222;2023-09-19T09:04:22;19.55;;;9.95;;
12412;SDS011;13877;18.896;-99.222;2023-09-19T09:06:51;17.87;;;8.93;;
12412;SDS011;13877;18.896;-99.222;2023-09-19T09:09:21;14.30;;;8.35;;
12412;SDS011;13877;18.896;-99.222;2023-09-19T09:11:48;12.85;;;7.68;;
12412;SDS011;13877;18.896;-99.222;2023-09-19T09:14:19;12.82;;;8.00;;
12412;SDS011;13877;18.896;-99.222;2023-09-19T09:16:48;13.80;;;7.20;;
12412;SDS011;13877;18.896;-99.222;2023-09-19T09:19:15;15.10;;;6.80;;
12412;SDS011;13877;18.896;-99.222;2023-09-19T09:21:51;16.70;;;7.75;;
12412;SDS011;13877;18.896;-99.222;2023-09-19T09:24:28;12.65;;;6.57;;
12412;SDS011;13877;18.896;-99.222;2023-09-19T09:26:57;17.23;;;7.35;;
12412;SDS011;13877;18.896;-99.222;2023-09-19T09:32:18;13.07;;;7.25;;
12412;SDS011;13877;18.896;-99.222;2023-09-19T09:34:53;13.43;;;7.57;;
12412;SDS011;13877;18.896;-99.222;2023-09-19T09:37:25;13.60;;;8.05;;
12412;SDS011;13877;18.896;-99.222;2023-09-19T09:39:59;13.32;;;7.72;;
12412;SDS011;13877;18.896;-99.222;2023-09-19T09:42:40;12.85;;;7.30;;
12412;SDS011;13877;18.896;-99.222;2023-09-19T09:48:08;12.75;;;7.53;;
12412;SDS011;13877;18.896;-99.222;2023-09-19T09:50:47;16.67;;;8.65;;
12412;SDS011;13877;18.896;-99.222;2023-09-19T09:53:34;13.40;;;7.80;;
12412;SDS011;13877;18.896;-99.222;2023-09-19T09:58:32;19.95;;;7.93;;
12412;SDS011;13877;18.896;-99.222;2023-09-19T10:01:01;13.10;;;8.82;;
12412;SDS011;13877;18.896;-99.222;2023-09-19T10:03:35;17.48;;;8.63;;
12412;SDS011;13877;18.896;-99.222;2023-09-19T10:06:07;15.90;;;8.70;;
12412;SDS011;13877;18.896;-99.222;2023-09-19T10:09:04;15.73;;;8.77;;
12412;SDS011;13877;18.896;-99.222;2023-09-19T10:11:44;27.45;;;9.60;;
12412;SDS011;13877;18.896;-99.222;2023-09-19T10:14:12;16.15;;;9.38;;
12412;SDS011;13877;18.896;-99.222;2023-09-19T10:16:46;23.63;;;10.13;;
12412;SDS011;13877;18.896;-99.222;2023-09-19T10:19:23;21.05;;;10.10;;
12412;SDS011;13877;18.896;-99.222;2023-09-19T10:22:00;25.02;;;11.23;;
12412;SDS011;13877;18.896;-99.222;2023-09-19T10:24:28;23.08;;;11.25;;
12412;SDS011;13877;18.896;-99.222;2023-09-19T10:26:57;20.65;;;10.23;;
12412;SDS011;13877;18.896;-99.222;2023-09-19T10:29:27;24.63;;;12.00;;
12412;SDS011;13877;18.896;-99.222;2023-09-19T10:31:57;23.73;;;12.27;;
12412;SDS011;13877;18.896;-99.222;2023-09-19T10:34:27;23.48;;;11.77;;
12412;SDS011;13877;18.896;-99.222;2023-09-19T10:36:56;23.63;;;12.15;;
12412;SDS011;13877;18.896;-99.222;2023-09-19T10:39:23;22.85;;;11.98;;
12412;SDS011;13877;18.896;-99.222;2023-09-19T10:41:52;26.45;;;13.05;;
12412;SDS011;13877;18.896;-99.222;2023-09-19T10:44:24;24.17;;;11.75;;
12412;SDS011;13877;18.896;-99.222;2023-09-19T10:46:54;28.83;;;13.50;;
12412;SDS011;13877;18.896;-99.222;2023-09-19T10:49:23;32.13;;;14.15;;
12412;SDS011;13877;18.896;-99.222;2023-09-19T10:51:52;30.95;;;13.85;;
12412;SDS011;13877;18.896;-99.222;2023-09-19T10:54:25;28.40;;;13.95;;
12412;SDS011;13877;18.896;-99.222;2023-09-19T10:56:58;33.08;;;14.35;;
12412;SDS011;13877;18.896;-99.222;2023-09-19T10:59:26;28.95;;;14.30;;
12412;SDS011;13877;18.896;-99.222;2023-09-19T11:02:07;30.60;;;14.60;;
12412;SDS011;13877;18.896;-99.222;2023-09-19T11:04:43;33.35;;;15.45;;
12412;SDS011;13877;18.896;-99.222;2023-09-19T11:07:14;36.78;;;16.17;;
12412;SDS011;13877;18.896;-99.222;2023-09-19T11:15:05;49.00;;;20.13;;
12412;SDS011;13877;18.896;-99.222;2023-09-19T11:17:43;55.92;;;23.02;;
12412;SDS011;13877;18.896;-99.222;2023-09-19T11:30:49;68.25;;;29.10;;
12412;SDS011;13877;18.896;-99.222;2023-09-19T11:36:13;88.15;;;31.73;;
12412;SDS011;13877;18.896;-99.222;2023-09-19T11:46:33;94.18;;;34.40;;
12412;SDS011;13877;18.896;-99.222;2023-09-19T11:49:06;112.40;;;35.25;;
12412;SDS011;13877;18.896;-99.222;2023-09-19T11:51:41;155.70;;;36.55;;
12412;SDS011;13877;18.896;-99.222;2023-09-19T11:54:11;139.30;;;36.17;;
12412;SDS011;13877;18.896;-99.222;2023-09-19T11:56:50;123.85;;;37.20;;
12412;SDS011;13877;18.896;-99.222;2023-09-19T11:59:22;109.38;;;34.55;;
12412;SDS011;13877;18.896;-99.222;2023-09-19T12:01:51;87.40;;;34.00;;
12412;SDS011;13877;18.896;-99.222;2023-09-19T12:04:35;101.65;;;37.47;;
12412;SDS011;13877;18.896;-99.222;2023-09-19T12:07:12;154.25;;;38.13;;
12412;SDS011;13877;18.896;-99.222;2023-09-19T12:09:45;94.75;;;37.30;;
12412;SDS011;13877;18.896;-99.222;2023-09-19T12:12:19;135.70;;;40.92;;
12412;SDS011;13877;18.896;-99.222;2023-09-19T12:14:54;115.25;;;35.33;;
12412;SDS011;13877;18.896;-99.222;2023-09-19T12:17:40;143.57;;;38.10;;
12412;SDS011;13877;18.896;-99.222;2023-09-19T12:20:10;92.40;;;33.35;;
12412;SDS011;13877;18.896;-99.222;2023-09-19T12:25:09;146.35;;;34.25;;
12412;SDS011;13877;18.896;-99.222;2023-09-19T12:27:41;304.88;;;44.38;;
12412;SDS011;13877;18.896;-99.222;2023-09-19T12:30:19;119.82;;;34.55;;
12412;SDS011;13877;18.896;-99.222;2023-09-19T12:32:53;94.25;;;33.05;;
12412;SDS011;13877;18.896;-99.222;2023-09-19T12:35:30;155.68;;;34.97;;
12412;SDS011;13877;18.896;-99.222;2023-09-19T12:38:02;123.72;;;36.90;;
12412;SDS011;13877;18.896;-99.222;2023-09-19T12:40:29;103.32;;;33.88;;
12412;SDS011;13877;18.896;-99.222;2023-09-19T12:42:59;93.23;;;34.07;;
12412;SDS011;13877;18.896;-99.222;2023-09-19T12:45:30;87.70;;;33.73;;
12412;SDS011;13877;18.896;-99.222;2023-09-19T12:48:20;91.90;;;33.83;;
12412;SDS011;13877;18.896;-99.222;2023-09-19T12:51:08;91.93;;;33.45;;
12412;SDS011;13877;18.896;-99.222;2023-09-19T12:53:45;92.35;;;34.15;;
12412;SDS011;13877;18.896;-99.222;2023-09-19T12:56:17;87.25;;;34.88;;
12412;SDS011;13877;18.896;-99.222;2023-09-19T12:58:54;82.65;;;33.13;;
12412;SDS011;13877;18.896;-99.222;2023-09-19T13:01:23;75.30;;;33.40;;
12412;SDS011;13877;18.896;-99.222;2023-09-19T13:06:41;74.90;;;33.13;;
12412;SDS011;13877;18.896;-99.222;2023-09-19T13:09:10;65.35;;;29.00;;
12412;SDS011;13877;18.896;-99.222;2023-09-19T13:11:38;62.33;;;27.65;;
12412;SDS011;13877;18.896;-99.222;2023-09-19T13:14:14;62.25;;;29.05;;
12412;SDS011;13877;18.896;-99.222;2023-09-19T13:22:52;43.00;;;23.65;;
12412;SDS011;13877;18.896;-99.222;2023-09-19T13:25:09;45.15;;;23.13;;
12412;SDS011;13877;18.896;-99.222;2023-09-19T13:27:44;36.10;;;21.33;;
12412;SDS011;13877;18.896;-99.222;2023-09-19T13:30:22;43.72;;;18.98;;
12412;SDS011;13877;18.896;-99.222;2023-09-19T13:32:51;37.03;;;19.67;;
12412;SDS011;13877;18.896;-99.222;2023-09-19T13:35:19;33.10;;;17.40;;
12412;SDS011;13877;18.896;-99.222;2023-09-19T13:37:47;40.67;;;18.20;;
12412;SDS011;13877;18.896;-99.222;2023-09-19T13:40:17;29.08;;;17.58;;
12412;SDS011;13877;18.896;-99.222;2023-09-19T13:42:44;27.33;;;16.80;;
12412;SDS011;13877;18.896;-99.222;2023-09-19T13:45:11;31.13;;;17.13;;
12412;SDS011;13877;18.896;-99.222;2023-09-19T13:47:41;33.08;;;16.75;;
12412;SDS011;13877;18.896;-99.222;2023-09-19T13:50:08;28.73;;;16.95;;
12412;SDS011;13877;18.896;-99.222;2023-09-19T13:52:36;30.73;;;16.63;;
12412;SDS011;13877;18.896;-99.222;2023-09-19T13:55:04;27.75;;;16.63;;
12412;SDS011;13877;18.896;-99.222;2023-09-19T13:57:32;27.48;;;15.57;;
12412;SDS011;13877;18.896;-99.222;2023-09-19T14:00:00;25.15;;;11.90;;
12412;SDS011;13877;18.896;-99.222;2023-09-19T14:02:37;31.55;;;14.18;;
12412;SDS011;13877;18.896;-99.222;2023-09-19T14:05:05;23.23;;;12.82;;
12412;SDS011;13877;18.896;-99.222;2023-09-19T14:07:32;20.92;;;13.02;;
12412;SDS011;13877;18.896;-99.222;2023-09-19T14:10:00;27.25;;;14.07;;
12412;SDS011;13877;18.896;-99.222;2023-09-19T14:12:26;25.05;;;15.40;;
12412;SDS011;13877;18.896;-99.222;2023-09-19T14:14:54;30.10;;;15.48;;
12412;SDS011;13877;18.896;-99.222;2023-09-19T14:17:21;28.02;;;16.13;;
12412;SDS011;13877;18.896;-99.222;2023-09-19T14:19:50;22.17;;;13.65;;
12412;SDS011;13877;18.896;-99.222;2023-09-19T14:22:17;23.38;;;13.98;;
12412;SDS011;13877;18.896;-99.222;2023-09-19T14:24:44;28.90;;;14.52;;
12412;SDS011;13877;18.896;-99.222;2023-09-19T14:27:11;26.92;;;15.48;;
12412;SDS011;13877;18.896;-99.222;2023-09-19T14:29:38;25.95;;;16.48;;
12412;SDS011;13877;18.896;-99.222;2023-09-19T14:32:05;26.83;;;16.90;;
12412;SDS011;13877;18.896;-99.222;2023-09-19T14:34:32;28.00;;;12.63;;
12412;SDS011;13877;18.896;-99.222;2023-09-19T14:36:59;23.90;;;13.40;;
12412;SDS011;13877;18.896;-99.222;2023-09-19T14:39:28;20.52;;;13.13;;
12412;SDS011;13877;18.896;-99.222;2023-09-19T14:41:55;22.85;;;12.77;;
12412;SDS011;13877;18.896;-99.222;2023-09-19T14:44:22;23.25;;;13.25;;
12412;SDS011;13877;18.896;-99.222;2023-09-19T14:46:49;25.13;;;13.43;;
12412;SDS011;13877;18.896;-99.222;2023-09-19T14:49:17;18.45;;;12.20;;
12412;SDS011;13877;18.896;-99.222;2023-09-19T14:51:44;16.40;;;11.13;;
12412;SDS011;13877;18.896;-99.222;2023-09-19T14:54:13;17.67;;;10.40;;
12412;SDS011;13877;18.896;-99.222;2023-09-19T14:56:43;20.70;;;12.17;;
12412;SDS011;13877;18.896;-99.222;2023-09-19T14:59:10;25.10;;;12.32;;
12412;SDS011;13877;18.896;-99.222;2023-09-19T15:01:38;20.83;;;11.23;;
12412;SDS011;13877;18.896;-99.222;2023-09-19T15:04:06;26.33;;;11.20;;
12412;SDS011;13877;18.896;-99.222;2023-09-19T15:06:34;20.35;;;10.02;;
12412;SDS011;13877;18.896;-99.222;2023-09-19T15:09:01;23.98;;;12.75;;
12412;SDS011;13877;18.896;-99.222;2023-09-19T15:11:31;22.35;;;11.77;;
12412;SDS011;13877;18.896;-99.222;2023-09-19T15:13:58;20.88;;;11.73;;
12412;SDS011;13877;18.896;-99.222;2023-09-19T15:16:25;22.35;;;13.65;;
12412;SDS011;13877;18.896;-99.222;2023-09-19T15:18:54;24.80;;;14.05;;
12412;SDS011;13877;18.896;-99.222;2023-09-19T15:21:21;18.67;;;11.60;;